Etusivu
METAR-TAF:

METAR-TAF

Lentoasemat :

Peking, Kiina

Pekingin kansainvälinen lentoasema

Leveyspiiri: 39-56N, Pituuspiiri: 116-17E, korkeus merenpinnasta: 55 m

Tämänhetkinen sää

Tämä raportti tehtiin 17 tuntia ja 46 minuuttia sitten, kello 15.00 UTC
Tuuli 6 kn luoteesta, vaihdellen lännen/luoteen ja pohjoisen välillä
Lämpötila 1°C
Kosteus 23%
Ilmanpaine 1027 hPa
Näkyvyys 10 km tai enemmän
ei pilviä alle 1500 m:ssä eikä cumulonimbus-pilviä

METAR: ZBAA 201500Z 31003MPS 290V350 CAVOK 01/M18 Q1027 NOSIG

Aika: 16:46 (08:46 UTC)

Sääennuste

Tämä raportti tehtiin 23 tuntia ja 16 minuuttia sitten, kello 09.30 UTC
Ennuste voimassa 20. päivästä klo 12 UTC - 21. päivään klo 12 UTC
Tuuli 8 kn pohjoisen/luoteesta
Näkyvyys 10 km tai enemmän
ei pilviä alle 1500 m:ssä eikä cumulonimbus-pilviä

TAF: ZBAA 200930Z 2012/2112 34004MPS CAVOK TX08/2106Z TNM04/21Z

Säähavainnot ja -ennusteet yli 4000 lentoasemalta (METAR- ja TAF-raportit).

Käytössä olevat sääasemat on merkitty karttaan keltaisilla ja punaisilla pisteillä.

Aseta hiiri pisteen päälle nähdäksesi sääaseman nimen.

Klikkaa sitten nähdäksesi säähavainnot ja -ennusteet.

Kartan vaihtaminen: klikkaa mustalla rastilla varustettuja vihreitä pisteitä, niin voit zoomata sisään; viivalla varustettua vihreää pistettä, niin voit zoomata ulos tai vihreitä nuolia, niin pääset viereisille kartoille.


METAR-TAF: